Time;durP1;ratioP1;P1;durP2;ratioP2;P2;SDS_P1;SDS_P2;PMS_P1;PMS_P2;Temp;Humidity;BMP_temperature;BMP_pressure;BME280_temperature;BME280_humidity;BME280_pressure;Samples;Min_cycle;Max_cycle;Signal;HPM_P1;HPM_P2
2021/08/10 00:00:31;;;;;;;3.78;3.47;;;24.00;72.80;;;;;;6210651;23;20028;-62
2021/08/10 00:03:17;;;;;;;3.55;3.22;;;23.90;72.80;;;;;;6209845;23;20364;-62
2021/08/10 00:05:49;;;;;;;6.28;3.10;;;24.00;72.80;;;;;;6210358;23;20045;-61
2021/08/10 00:08:16;;;;;;;8.25;3.38;;;23.90;72.90;;;;;;6210428;23;20020;-61
2021/08/10 00:10:44;;;;;;;5.13;3.08;;;23.90;72.90;;;;;;6212875;23;20050;-62
2021/08/10 00:13:14;;;;;;;7.78;3.45;;;23.90;72.90;;;;;;6209965;23;20096;-62
2021/08/10 00:15:40;;;;;;;6.38;3.20;;;23.90;72.90;;;;;;6213275;23;20024;-62
2021/08/10 00:18:07;;;;;;;3.63;2.92;;;23.90;73.00;;;;;;6210534;23;20020;-62
2021/08/10 00:20:34;;;;;;;4.20;2.80;;;23.90;73.00;;;;;;6210458;23;20040;-61
2021/08/10 00:23:00;;;;;;;5.80;3.35;;;23.80;72.80;;;;;;6209927;23;20099;-62
2021/08/10 00:25:26;;;;;;;5.75;3.40;;;23.80;72.80;;;;;;6210046;23;20017;-61
2021/08/10 00:27:52;;;;;;;7.85;3.42;;;23.90;72.90;;;;;;6209978;23;20419;-61
2021/08/10 00:30:19;;;;;;;8.18;3.00;;;23.90;72.90;;;;;;6210258;23;20021;-62
2021/08/10 00:32:46;;;;;;;5.00;3.10;;;23.80;73.00;;;;;;6209984;23;20036;-62
2021/08/10 00:35:13;;;;;;;6.68;2.88;;;23.80;73.00;;;;;;6208632;23;20020;-62
2021/08/10 00:37:39;;;;;;;8.68;3.42;;;23.80;72.80;;;;;;6210458;23;20585;-62
2021/08/10 00:40:06;;;;;;;6.68;3.17;;;23.80;72.90;;;;;;6211717;23;20027;-61
2021/08/10 00:42:34;;;;;;;9.68;3.20;;;23.80;72.80;;;;;;6209956;23;20055;-62
2021/08/10 00:45:00;;;;;;;7.20;2.97;;;23.80;72.70;;;;;;6209910;23;20056;-62
2021/08/10 00:47:30;;;;;;;6.18;3.92;;;23.80;72.80;;;;;;6208611;23;20541;-62
2021/08/10 00:49:56;;;;;;;5.43;3.10;;;23.80;72.80;;;;;;6208225;23;20084;-61
2021/08/10 00:52:23;;;;;;;8.77;3.38;;;23.70;72.90;;;;;;6211120;23;20047;-62
2021/08/10 00:54:49;;;;;;;6.97;3.05;;;23.80;73.00;;;;;;6208241;23;20024;-62
2021/08/10 00:57:16;;;;;;;3.40;2.85;;;23.80;73.00;;;;;;6208815;23;20052;-62
2021/08/10 00:59:42;;;;;;;3.50;2.97;;;23.80;73.00;;;;;;6210723;23;20017;-62
2021/08/10 01:02:09;;;;;;;5.88;2.92;;;23.80;73.00;;;;;;6208339;23;20362;-61
2021/08/10 01:04:37;;;;;;;7.60;3.33;;;23.80;72.90;;;;;;6208078;23;20033;-61
2021/08/10 01:07:12;;;;;;;3.17;2.83;;;23.80;72.80;;;;;;6208472;23;20020;-62
2021/08/10 01:09:56;;;;;;;7.35;3.30;;;23.80;72.80;;;;;;6207975;23;20052;-61
2021/08/10 01:12:30;;;;;;;4.40;2.90;;;23.80;72.80;;;;;;6208475;23;20016;-61
2021/08/10 01:15:35;;;;;;;6.47;2.67;;;23.80;72.60;;;;;;6208007;23;20039;-61
2021/08/10 01:18:18;;;;;;;12.43;3.40;;;23.80;72.40;;;;;;6201087;23;20031;-61
2021/08/10 01:20:57;;;;;;;9.05;2.90;;;23.80;72.50;;;;;;6208435;23;20047;-61
2021/08/10 01:23:27;;;;;;;5.53;2.97;;;23.80;72.50;;;;;;6208149;23;20096;-61
2021/08/10 01:26:24;;;;;;;6.40;3.65;;;23.80;72.50;;;;;;6208003;23;20493;-61
2021/08/10 01:29:10;;;;;;;4.15;3.10;;;23.80;72.60;;;;;;6211843;23;20098;-61
2021/08/10 01:31:40;;;;;;;6.05;3.92;;;23.70;72.50;;;;;;6208092;23;20137;-62
2021/08/10 01:34:26;;;;;;;5.85;3.35;;;23.70;72.50;;;;;;6210931;23;20441;-62
2021/08/10 01:37:03;;;;;;;4.03;3.10;;;23.70;72.60;;;;;;6208210;23;20020;-62
2021/08/10 01:39:32;;;;;;;4.80;3.20;;;23.70;72.80;;;;;;6208102;23;20406;-61
2021/08/10 01:42:01;;;;;;;9.63;3.15;;;23.70;72.70;;;;;;6207547;23;20114;-61
2021/08/10 01:44:29;;;;;;;4.97;2.90;;;23.70;72.60;;;;;;6208203;23;20107;-62
2021/08/10 01:47:04;;;;;;;3.60;3.08;;;23.60;72.70;;;;;;6208050;23;20059;-62
2021/08/10 01:49:32;;;;;;;7.97;2.63;;;23.70;72.70;;;;;;6210769;23;20048;-62
2021/08/10 01:51:59;;;;;;;6.38;3.30;;;23.70;72.60;;;;;;6207627;23;20358;-62
2021/08/10 01:54:27;;;;;;;6.63;3.60;;;23.70;72.50;;;;;;6208299;23;20040;-61
2021/08/10 01:56:54;;;;;;;7.60;2.70;;;23.70;72.50;;;;;;6208235;23;20040;-62
2021/08/10 01:59:22;;;;;;;4.65;2.83;;;23.70;72.50;;;;;;6207231;23;20021;-62
2021/08/10 02:01:51;;;;;;;3.92;3.38;;;23.70;72.30;;;;;;6206585;23;20082;-61
2021/08/10 02:04:20;;;;;;;11.02;3.67;;;23.70;72.30;;;;;;6208753;23;20025;-61
2021/08/10 02:06:52;;;;;;;11.55;3.47;;;23.70;72.20;;;;;;6207918;23;20045;-61
2021/08/10 02:09:21;;;;;;;6.40;3.22;;;23.70;72.30;;;;;;6208561;23;20025;-61
2021/08/10 02:11:52;;;;;;;3.85;3.53;;;23.70;72.20;;;;;;6211678;23;20373;-61
2021/08/10 02:14:22;;;;;;;3.22;3.03;;;23.60;72.20;;;;;;6207964;23;20470;-62
2021/08/10 02:16:53;;;;;;;7.20;3.13;;;23.70;72.10;;;;;;6211557;23;20067;-61
2021/08/10 02:19:21;;;;;;;11.50;3.20;;;23.60;72.10;;;;;;6207991;23;20103;-61
2021/08/10 02:21:56;;;;;;;5.30;3.28;;;23.70;72.00;;;;;;6207661;23;20087;-62
2021/08/10 02:24:30;;;;;;;5.05;3.47;;;23.70;72.00;;;;;;6207767;23;20540;-62
2021/08/10 02:27:04;;;;;;;6.07;3.08;;;23.60;72.10;;;;;;6207608;23;20031;-61
2021/08/10 02:29:41;;;;;;;4.57;2.38;;;23.60;72.10;;;;;;6209059;23;20483;-61
2021/08/10 02:32:12;;;;;;;8.57;3.45;;;23.60;72.00;;;;;;6211207;23;20024;-62
2021/08/10 02:34:42;;;;;;;6.20;3.47;;;23.60;72.10;;;;;;6207846;23;20055;-63
2021/08/10 02:37:15;;;;;;;3.13;2.78;;;23.60;72.70;;;;;;6207962;23;20039;-61
2021/08/10 02:39:45;;;;;;;7.60;3.22;;;23.60;71.90;;;;;;6207797;23;20498;-62
2021/08/10 02:42:14;;;;;;;3.15;2.88;;;23.60;71.80;;;;;;6206327;23;20028;-62
2021/08/10 02:44:42;;;;;;;4.43;3.40;;;23.60;72.00;;;;;;6210014;23;20083;-62
2021/08/10 02:47:13;;;;;;;5.70;2.92;;;23.60;72.00;;;;;;6207387;23;20116;-61
2021/08/10 02:49:41;;;;;;;10.77;4.55;;;23.60;71.90;;;;;;6207586;23;20024;-61
2021/08/10 02:52:08;;;;;;;6.70;3.38;;;23.60;71.90;;;;;;6207112;23;20470;-62
2021/08/10 02:54:37;;;;;;;12.20;3.47;;;23.50;72.00;;;;;;6208488;23;20438;-61
2021/08/10 02:57:33;;;;;;;9.35;4.05;;;23.50;72.00;;;;;;6211179;23;20460;-62
2021/08/10 03:00:09;;;;;;;10.50;3.17;;;23.50;72.00;;;;;;6209481;23;20756;-61
2021/08/10 03:02:52;;;;;;;8.45;3.10;;;23.60;72.00;;;;;;6213548;23;20075;-61
2021/08/10 03:05:21;;;;;;;9.23;3.42;;;23.60;72.10;;;;;;6209099;23;20040;-62
2021/08/10 03:07:57;;;;;;;5.63;3.67;;;23.50;72.00;;;;;;6209371;23;20024;-61
2021/08/10 03:10:29;;;;;;;10.70;3.38;;;23.50;72.00;;;;;;6210472;23;20020;-62
2021/08/10 03:12:59;;;;;;;10.75;3.97;;;23.50;71.90;;;;;;6212695;23;20458;-61
2021/08/10 03:15:29;;;;;;;6.65;3.80;;;23.50;71.80;;;;;;6209089;23;20031;-62
2021/08/10 03:18:02;;;;;;;7.60;3.20;;;23.50;71.80;;;;;;6213172;23;20025;-61
2021/08/10 03:20:32;;;;;;;3.60;3.40;;;23.60;72.00;;;;;;6209863;23;20048;-62
2021/08/10 03:22:59;;;;;;;6.22;4.00;;;23.50;71.90;;;;;;6210951;23;20024;-61
2021/08/10 03:25:27;;;;;;;9.10;3.40;;;23.50;72.00;;;;;;6209342;23;20394;-61
2021/08/10 03:27:55;;;;;;;11.88;3.05;;;23.50;72.10;;;;;;6210349;23;20091;-62
2021/08/10 03:30:22;;;;;;;4.30;3.42;;;23.50;72.00;;;;;;6213551;23;20055;-61
2021/08/10 03:32:52;;;;;;;6.78;3.42;;;23.50;72.00;;;;;;6209181;23;20021;-62
2021/08/10 03:35:20;;;;;;;9.23;3.65;;;23.50;71.90;;;;;;6209004;23;20087;-62
2021/08/10 03:37:47;;;;;;;5.32;3.50;;;23.50;72.00;;;;;;6211250;23;20020;-62
2021/08/10 03:40:15;;;;;;;4.18;3.70;;;23.50;72.20;;;;;;6209107;23;20086;-62
2021/08/10 03:42:41;;;;;;;7.13;3.70;;;23.40;72.00;;;;;;6210681;23;20410;-62
2021/08/10 03:45:09;;;;;;;8.90;3.63;;;23.40;72.00;;;;;;6208990;23;20029;-62
2021/08/10 03:47:37;;;;;;;7.35;3.35;;;23.40;72.10;;;;;;6212716;23;20026;-61
2021/08/10 03:50:05;;;;;;;7.75;4.07;;;23.40;72.20;;;;;;6210739;23;20048;-61
2021/08/10 03:52:31;;;;;;;7.68;3.70;;;23.40;72.20;;;;;;6209156;23;20388;-62
2021/08/10 03:54:58;;;;;;;9.48;3.78;;;23.50;72.30;;;;;;6211665;23;20020;-62
2021/08/10 03:57:29;;;;;;;11.45;7.32;;;23.50;72.30;;;;;;6208770;23;20056;-62
2021/08/10 03:59:57;;;;;;;15.38;11.20;;;23.50;72.40;;;;;;6212342;23;20028;-61
2021/08/10 04:02:24;;;;;;;15.75;9.70;;;23.50;72.50;;;;;;6209849;23;20459;-62
2021/08/10 04:04:53;;;;;;;17.42;11.50;;;23.40;72.50;;;;;;6208634;23;20036;-62
2021/08/10 04:07:22;;;;;;;19.90;12.45;;;23.50;72.70;;;;;;6210397;23;20091;-62
2021/08/10 04:09:49;;;;;;;31.70;19.00;;;23.50;72.70;;;;;;6208855;23;20366;-61
2021/08/10 04:12:20;;;;;;;31.42;19.88;;;23.50;72.80;;;;;;6208827;23;20119;-62
2021/08/10 04:14:47;;;;;;;35.05;18.13;;;23.60;72.80;;;;;;6209017;23;20462;-62
2021/08/10 04:17:17;;;;;;;23.13;15.38;;;23.50;72.70;;;;;;6211575;23;20339;-62
2021/08/10 04:19:53;;;;;;;20.88;14.20;;;23.50;72.70;;;;;;6210035;23;20052;-62
2021/08/10 04:22:20;;;;;;;22.73;12.98;;;23.50;72.80;;;;;;6211573;23;20374;-62
2021/08/10 04:24:48;;;;;;;18.95;13.23;;;23.50;73.30;;;;;;6207964;23;20016;-62
2021/08/10 04:27:16;;;;;;;20.75;12.85;;;23.50;73.20;;;;;;6208573;23;20020;-62
2021/08/10 04:29:45;;;;;;;19.67;12.07;;;23.50;73.20;;;;;;6210578;23;20021;-61
2021/08/10 04:32:11;;;;;;;19.63;11.07;;;23.50;73.20;;;;;;6208079;23;20020;-62
2021/08/10 04:34:39;;;;;;;20.65;10.50;;;23.50;73.30;;;;;;6208468;23;20481;-62
2021/08/10 04:37:06;;;;;;;25.08;11.60;;;23.50;73.30;;;;;;6208517;23;20029;-62
2021/08/10 04:39:35;;;;;;;20.95;11.18;;;23.50;73.40;;;;;;6208511;23;20044;-62
2021/08/10 04:42:06;;;;;;;16.65;11.00;;;23.50;73.40;;;;;;6210181;23;20028;-61
2021/08/10 04:44:32;;;;;;;15.43;10.00;;;23.50;73.60;;;;;;6209938;23;20051;-61
2021/08/10 04:46:58;;;;;;;15.15;10.07;;;23.60;73.60;;;;;;6208358;23;20051;-62
2021/08/10 04:49:24;;;;;;;13.18;9.55;;;23.50;73.60;;;;;;6208185;23;20024;-62
2021/08/10 04:51:51;;;;;;;14.85;8.77;;;23.50;73.60;;;;;;6212093;23;20107;-61
2021/08/10 04:54:17;;;;;;;9.45;7.93;;;23.50;73.70;;;;;;6208283;23;20043;-62
2021/08/10 04:56:44;;;;;;;13.30;8.43;;;23.50;73.80;;;;;;6208567;23;20021;-62
2021/08/10 04:59:10;;;;;;;20.23;7.43;;;23.60;73.90;;;;;;6210067;23;20082;-61
2021/08/10 05:01:39;;;;;;;10.77;7.88;;;23.50;73.90;;;;;;6207712;23;20063;-62
2021/08/10 05:04:06;;;;;;;13.88;7.90;;;23.60;74.00;;;;;;6210769;23;20050;-62
2021/08/10 05:06:35;;;;;;;12.75;7.40;;;23.60;74.00;;;;;;6210437;23;20025;-61
2021/08/10 05:09:02;;;;;;;13.25;7.47;;;23.60;74.10;;;;;;6207997;23;20063;-62
2021/08/10 05:11:28;;;;;;;15.38;8.57;;;23.60;74.10;;;;;;6212443;23;20024;-62
2021/08/10 05:13:54;;;;;;;12.98;7.43;;;23.60;74.20;;;;;;6208153;23;20022;-62
2021/08/10 05:16:23;;;;;;;15.23;7.78;;;23.60;74.10;;;;;;6206247;23;20063;-62
2021/08/10 05:18:49;;;;;;;13.05;6.13;;;23.60;74.20;;;;;;6207780;23;20016;-61
2021/08/10 05:21:17;;;;;;;9.07;5.70;;;23.60;74.20;;;;;;6205690;23;20366;-62
2021/08/10 05:23:49;;;;;;;10.75;6.40;;;23.70;74.30;;;;;;6203509;23;20095;-62
2021/08/10 05:26:15;;;;;;;11.63;6.22;;;23.70;74.50;;;;;;6205373;23;20363;-61
2021/08/10 05:28:44;;;;;;;13.38;6.40;;;23.70;74.50;;;;;;6207864;23;20436;-62
2021/08/10 05:31:11;;;;;;;7.63;5.45;;;23.60;74.50;;;;;;6206614;23;20138;-62
2021/08/10 05:33:37;;;;;;;15.02;6.05;;;23.60;74.60;;;;;;6208787;23;20460;-60
2021/08/10 05:36:07;;;;;;;10.70;5.57;;;23.70;74.80;;;;;;6202853;23;20036;-61
2021/08/10 05:38:33;;;;;;;8.07;4.70;;;23.70;75.10;;;;;;6201875;23;20040;-61
2021/08/10 05:41:01;;;;;;;6.38;5.57;;;23.60;75.20;;;;;;6205627;23;20020;-61
2021/08/10 05:43:27;;;;;;;16.15;4.78;;;23.60;75.30;;;;;;6205315;23;20040;-61
2021/08/10 05:45:54;;;;;;;10.70;4.82;;;23.60;75.50;;;;;;6207944;23;20166;-61
2021/08/10 05:48:22;;;;;;;5.45;3.92;;;23.70;75.50;;;;;;6209907;23;20047;-61
2021/08/10 05:50:51;;;;;;;11.73;4.95;;;23.60;75.30;;;;;;6207993;23;20016;-60
2021/08/10 05:53:19;;;;;;;9.88;5.25;;;23.70;75.30;;;;;;6207931;23;20048;-60
2021/08/10 05:55:46;;;;;;;11.13;4.65;;;23.70;75.20;;;;;;6207675;23;20052;-60
2021/08/10 05:58:12;;;;;;;7.93;4.70;;;23.70;75.30;;;;;;6211504;23;20366;-60
2021/08/10 06:00:38;;;;;;;6.05;3.70;;;23.70;75.20;;;;;;6207987;23;20608;-60
2021/08/10 06:03:11;;;;;;;7.72;4.38;;;23.60;75.00;;;;;;6211748;23;20026;-60
2021/08/10 06:05:39;;;;;;;11.35;4.20;;;23.70;74.90;;;;;;6208189;23;20024;-60
2021/08/10 06:08:06;;;;;;;4.95;4.05;;;23.70;74.80;;;;;;6207613;23;20147;-60
2021/08/10 06:10:39;;;;;;;7.85;3.78;;;23.70;74.80;;;;;;6210271;23;20075;-61
2021/08/10 06:13:06;;;;;;;7.70;3.63;;;23.70;74.80;;;;;;6207809;23;20044;-61
2021/08/10 06:15:32;;;;;;;12.35;3.97;;;23.70;74.90;;;;;;6211276;23;20032;-61
2021/08/10 06:18:02;;;;;;;9.68;4.10;;;23.70;75.00;;;;;;6207743;23;20479;-60
2021/08/10 06:20:29;;;;;;;6.45;4.40;;;23.70;74.90;;;;;;6207964;23;20040;-61
2021/08/10 06:22:55;;;;;;;8.55;4.13;;;23.70;75.00;;;;;;6209050;23;20017;-61
2021/08/10 06:25:22;;;;;;;7.78;3.80;;;23.70;74.80;;;;;;6207767;23;20021;-61
2021/08/10 06:27:48;;;;;;;9.82;3.38;;;23.70;74.90;;;;;;6207335;23;20063;-61
2021/08/10 06:30:14;;;;;;;11.52;3.75;;;23.70;74.80;;;;;;6209461;23;20024;-61
2021/08/10 06:32:41;;;;;;;11.18;3.88;;;23.70;74.90;;;;;;6210011;23;20094;-60
2021/08/10 06:35:15;;;;;;;16.65;5.07;;;23.70;75.50;;;;;;6208968;23;20523;-61
2021/08/10 06:37:42;;;;;;;10.50;4.05;;;23.70;75.00;;;;;;6209391;23;20025;-61
2021/08/10 06:40:08;;;;;;;12.63;3.67;;;23.70;75.10;;;;;;6212104;23;20020;-61
2021/08/10 06:42:34;;;;;;;16.42;4.43;;;23.70;75.00;;;;;;6209517;23;20063;-61
2021/08/10 06:45:04;;;;;;;10.77;4.18;;;23.70;74.90;;;;;;6213090;23;20100;-62
2021/08/10 06:47:30;;;;;;;24.20;4.28;;;23.70;75.00;;;;;;6211368;23;20031;-61
2021/08/10 06:49:56;;;;;;;10.63;3.42;;;23.70;74.90;;;;;;6208260;23;20502;-62
2021/08/10 06:52:25;;;;;;;10.88;3.72;;;23.70;74.90;;;;;;6211665;23;20031;-62
2021/08/10 06:54:52;;;;;;;11.80;4.00;;;23.70;74.60;;;;;;6208683;23;20370;-61
2021/08/10 06:57:19;;;;;;;10.48;3.42;;;23.70;74.60;;;;;;6210501;23;20059;-61
2021/08/10 06:59:45;;;;;;;16.50;3.95;;;23.70;74.50;;;;;;6209545;23;20437;-59
2021/08/10 07:02:12;;;;;;;16.70;4.43;;;23.80;74.40;;;;;;6209252;23;20478;-59
2021/08/10 07:04:38;;;;;;;9.48;3.30;;;23.80;74.30;;;;;;6208479;23;20104;-59
2021/08/10 07:07:06;;;;;;;8.32;4.05;;;23.80;74.30;;;;;;6209270;23;20033;-59
2021/08/10 07:09:36;;;;;;;5.80;3.22;;;23.80;74.40;;;;;;6187789;23;20533;-59
2021/08/10 07:12:04;;;;;;;8.95;3.55;;;23.80;74.40;;;;;;6209412;23;20048;-59
2021/08/10 07:14:33;;;;;;;8.10;3.33;;;23.80;74.40;;;;;;6213232;23;20048;-59
2021/08/10 07:17:02;;;;;;;2.92;2.72;;;23.80;74.50;;;;;;6209201;23;20017;-59
2021/08/10 07:19:32;;;;;;;3.58;3.17;;;23.80;74.50;;;;;;6207944;23;20095;-62
2021/08/10 07:21:59;;;;;;;3.53;2.83;;;23.80;74.60;;;;;;6213097;23;20151;-61
2021/08/10 07:24:31;;;;;;;6.30;3.28;;;23.80;74.70;;;;;;6209758;23;20024;-62
2021/08/10 07:26:58;;;;;;;4.78;2.58;;;23.80;74.70;;;;;;6208864;23;20047;-61
2021/08/10 07:29:27;;;;;;;7.97;2.58;;;23.90;74.80;;;;;;6208498;23;20028;-61
2021/08/10 07:31:55;;;;;;;9.15;2.90;;;23.80;74.80;;;;;;6212428;23;20154;-61
2021/08/10 07:34:26;;;;;;;4.20;2.90;;;23.90;74.80;;;;;;6208714;23;20398;-61
2021/08/10 07:36:56;;;;;;;3.35;2.83;;;23.90;74.70;;;;;;6208551;23;20044;-61
2021/08/10 07:39:23;;;;;;;11.75;3.20;;;23.90;74.80;;;;;;6212449;23;20025;-61
2021/08/10 07:41:51;;;;;;;6.05;3.20;;;24.00;74.90;;;;;;6208392;23;20044;-61
2021/08/10 07:44:17;;;;;;;7.05;3.95;;;23.90;74.80;;;;;;6213354;23;20021;-61
2021/08/10 07:46:46;;;;;;;3.53;2.70;;;23.90;74.90;;;;;;6208613;23;20020;-61
2021/08/10 07:49:23;;;;;;;3.78;2.72;;;24.00;74.90;;;;;;6208089;23;20071;-61
2021/08/10 07:51:49;;;;;;;10.77;3.20;;;24.00;74.90;;;;;;6209067;23;20020;-62
2021/08/10 07:54:15;;;;;;;5.07;2.47;;;24.00;75.10;;;;;;6208176;23;20147;-60
2021/08/10 07:56:41;;;;;;;5.70;3.00;;;24.00;75.00;;;;;;6208461;23;20025;-62
2021/08/10 07:59:10;;;;;;;3.05;2.50;;;24.00;75.20;;;;;;6208595;23;20016;-62
2021/08/10 08:01:36;;;;;;;2.63;2.45;;;24.00;75.30;;;;;;6210289;23;20035;-62
2021/08/10 08:04:02;;;;;;;4.43;3.40;;;24.00;75.00;;;;;;6208069;23;20020;-63
2021/08/10 08:06:30;;;;;;;2.25;2.15;;;24.00;75.20;;;;;;6208646;23;20028;-62
2021/08/10 08:08:56;;;;;;;2.38;2.28;;;24.10;75.10;;;;;;6211014;23;20024;-63
2021/08/10 08:11:24;;;;;;;4.07;2.17;;;24.10;75.10;;;;;;6208097;23;20151;-63
2021/08/10 08:13:51;;;;;;;2.45;2.25;;;24.10;75.10;;;;;;6208484;23;20436;-61
2021/08/10 08:16:17;;;;;;;2.45;2.33;;;24.10;75.20;;;;;;6209868;23;20462;-61
2021/08/10 08:18:44;;;;;;;2.42;2.22;;;24.10;75.20;;;;;;6207914;23;20036;-61
2021/08/10 08:21:13;;;;;;;9.18;2.65;;;24.10;75.30;;;;;;6210271;23;20099;-61
2021/08/10 08:23:44;;;;;;;3.50;2.10;;;24.10;75.30;;;;;;6208118;23;20405;-61
2021/08/10 08:26:10;;;;;;;3.92;2.50;;;24.10;75.00;;;;;;6207993;23;20095;-63
2021/08/10 08:28:40;;;;;;;3.10;2.08;;;24.10;75.00;;;;;;6208377;23;20052;-62
2021/08/10 08:31:08;;;;;;;1.92;1.83;;;24.10;75.10;;;;;;6208318;23;20135;-61
2021/08/10 08:33:35;;;;;;;6.78;2.20;;;24.10;75.10;;;;;;6208688;23;20083;-63
2021/08/10 08:36:01;;;;;;;2.35;2.20;;;24.20;74.90;;;;;;6208843;23;20075;-63
2021/08/10 08:38:28;;;;;;;1.73;1.73;;;24.20;74.90;;;;;;6210827;23;20055;-63
2021/08/10 08:40:54;;;;;;;2.05;1.88;;;24.10;74.80;;;;;;6208510;23;20387;-63
2021/08/10 08:43:23;;;;;;;2.15;2.05;;;24.20;74.70;;;;;;6208104;23;20078;-63
2021/08/10 08:45:50;;;;;;;1.67;1.58;;;24.20;74.30;;;;;;6207546;23;20087;-63
2021/08/10 08:48:16;;;;;;;3.15;1.77;;;24.20;74.00;;;;;;6208070;23;20040;-63
2021/08/10 08:50:46;;;;;;;1.50;1.50;;;24.20;74.10;;;;;;6209865;23;20509;-63
2021/08/10 08:53:15;;;;;;;2.10;1.50;;;24.10;73.60;;;;;;6207795;23;20075;-63
2021/08/10 08:55:47;;;;;;;1.50;1.10;;;24.10;73.60;;;;;;6208036;23;20062;-63
2021/08/10 08:58:16;;;;;;;4.53;2.38;;;24.10;73.40;;;;;;6207700;23;20370;-64
2021/08/10 09:00:43;;;;;;;3.92;1.38;;;24.10;73.50;;;;;;6207984;23;20099;-63
2021/08/10 09:03:09;;;;;;;2.38;1.40;;;24.10;73.10;;;;;;6208069;23;20083;-63
2021/08/10 09:05:39;;;;;;;5.38;1.55;;;24.10;72.90;;;;;;6207954;23;20024;-63
2021/08/10 09:08:27;;;;;;;4.10;1.70;;;24.20;72.90;;;;;;6207525;23;20551;-63
2021/08/10 09:10:57;;;;;;;5.93;1.92;;;24.10;72.80;;;;;;6208002;23;20016;-63
2021/08/10 09:13:23;;;;;;;5.90;1.20;;;24.20;72.80;;;;;;6207763;23;20048;-63
2021/08/10 09:15:50;;;;;;;1.75;1.58;;;24.20;72.60;;;;;;6207871;23;20020;-63
2021/08/10 09:18:22;;;;;;;1.75;1.38;;;24.10;72.50;;;;;;6208039;23;20086;-63
2021/08/10 09:21:13;;;;;;;2.67;1.48;;;24.10;72.40;;;;;;6207179;23;20021;-63
2021/08/10 09:23:56;;;;;;;1.75;1.35;;;24.20;72.20;;;;;;6207649;23;20029;-63
2021/08/10 09:26:38;;;;;;;2.63;1.23;;;24.10;72.00;;;;;;6207557;23;20044;-67
2021/08/10 09:29:08;;;;;;;5.28;0.80;;;24.20;72.00;;;;;;6207546;23;20089;-63
2021/08/10 09:31:38;;;;;;;11.18;1.02;;;24.20;71.60;;;;;;6183333;23;20509;-69
2021/08/10 09:34:15;;;;;;;1.23;0.82;;;24.20;71.30;;;;;;6207832;23;20025;-70
2021/08/10 09:36:42;;;;;;;5.70;1.58;;;24.20;71.10;;;;;;6207246;23;20075;-63
2021/08/10 09:39:08;;;;;;;4.72;1.35;;;24.20;71.00;;;;;;6207739;23;20047;-63
2021/08/10 09:41:35;;;;;;;2.95;1.40;;;24.20;70.80;;;;;;6210583;23;20044;-64
2021/08/10 09:44:10;;;;;;;2.08;0.90;;;24.20;70.80;;;;;;6208904;23;20036;-65
2021/08/10 09:46:38;;;;;;;1.52;1.42;;;24.20;70.60;;;;;;6211184;23;20474;-62
2021/08/10 09:49:09;;;;;;;3.67;1.23;;;24.20;71.00;;;;;;6207952;23;20020;-64
2021/08/10 09:51:42;;;;;;;1.85;1.10;;;24.20;70.20;;;;;;6213477;23;20485;-63
2021/08/10 09:54:14;;;;;;;1.48;0.82;;;24.20;70.10;;;;;;6207582;23;20040;-72
2021/08/10 09:56:52;;;;;;;0.60;0.60;;;24.20;69.10;;;;;;6209703;23;20024;-66
2021/08/10 09:59:22;;;;;;;4.82;1.20;;;24.20;68.80;;;;;;6206452;23;20024;-66
2021/08/10 10:01:55;;;;;;;1.55;1.00;;;24.20;69.20;;;;;;6210027;23;20020;-64
2021/08/10 10:04:25;;;;;;;2.05;1.05;;;24.20;69.10;;;;;;6208939;23;20070;-64
2021/08/10 10:07:11;;;;;;;3.28;1.25;;;24.20;69.00;;;;;;6211007;23;20032;-66
2021/08/10 10:09:46;;;;;;;4.88;1.15;;;24.20;69.00;;;;;;6209727;23;20462;-66
2021/08/10 10:12:19;;;;;;;3.50;1.52;;;24.20;68.90;;;;;;6212421;23;20541;-66
2021/08/10 10:14:47;;;;;;;3.35;1.20;;;24.20;68.70;;;;;;6210247;23;20021;-66
2021/08/10 10:17:14;;;;;;;2.50;1.02;;;24.20;68.90;;;;;;6209978;23;20016;-66
2021/08/10 10:19:42;;;;;;;5.47;1.15;;;24.20;68.90;;;;;;6212620;23;20055;-66
2021/08/10 10:22:17;;;;;;;4.25;1.38;;;24.20;68.60;;;;;;6211323;23;20028;-66
2021/08/10 10:24:55;;;;;;;3.97;1.23;;;24.20;68.50;;;;;;6211025;23;20052;-66
2021/08/10 10:27:23;;;;;;;7.22;1.00;;;24.20;68.40;;;;;;6210917;23;20031;-66
2021/08/10 10:29:51;;;;;;;5.60;0.70;;;24.20;68.10;;;;;;6211257;23;20110;-66
2021/08/10 10:32:19;;;;;;;3.45;1.17;;;24.20;67.30;;;;;;6210922;23;20020;-66
2021/08/10 10:34:46;;;;;;;5.07;0.70;;;24.20;67.50;;;;;;6211085;23;20016;-66
2021/08/10 10:37:17;;;;;;;1.08;0.95;;;24.20;67.50;;;;;;6210900;23;20067;-66
2021/08/10 10:39:44;;;;;;;4.03;0.82;;;24.20;67.60;;;;;;6214236;23;20016;-66
2021/08/10 10:42:14;;;;;;;2.75;0.85;;;24.20;67.50;;;;;;6210774;23;20072;-66
2021/08/10 10:44:45;;;;;;;0.85;0.70;;;24.30;67.50;;;;;;6211249;23;20021;-65
2021/08/10 10:47:21;;;;;;;1.58;0.88;;;24.30;67.50;;;;;;6212563;23;20048;-66
2021/08/10 10:50:07;;;;;;;8.18;1.20;;;24.30;67.60;;;;;;6210907;23;20051;-66
2021/08/10 10:52:34;;;;;;;4.95;1.35;;;24.30;67.60;;;;;;6209941;23;20020;-66
2021/08/10 10:55:03;;;;;;;5.55;1.48;;;24.30;67.50;;;;;;6211342;23;20075;-66
2021/08/10 10:57:29;;;;;;;3.78;1.20;;;24.30;67.30;;;;;;6211180;23;20043;-66
2021/08/10 11:00:04;;;;;;;1.85;0.88;;;24.40;67.30;;;;;;6210855;23;20024;-66
2021/08/10 11:02:32;;;;;;;7.00;0.90;;;24.30;67.20;;;;;;6210239;23;20016;-66
2021/08/10 11:05:17;;;;;;;2.22;0.80;;;24.30;67.30;;;;;;6214937;23;20059;-66
2021/08/10 11:07:45;;;;;;;5.50;1.00;;;24.40;67.10;;;;;;6210623;23;20047;-66
2021/08/10 11:10:46;;;;;;;5.82;0.90;;;24.40;67.10;;;;;;6214525;23;20084;-66
2021/08/10 11:13:21;;;;;;;4.82;1.17;;;24.40;67.30;;;;;;6210540;23;20028;-66
2021/08/10 11:15:47;;;;;;;6.80;0.98;;;24.40;67.20;;;;;;6210234;23;20025;-66
2021/08/10 11:18:14;;;;;;;5.22;1.48;;;24.40;67.30;;;;;;6210498;23;20068;-66
2021/08/10 11:20:52;;;;;;;5.30;1.10;;;24.40;67.30;;;;;;6211463;23;20406;-66
2021/08/10 11:23:22;;;;;;;3.42;1.02;;;24.40;67.30;;;;;;6210567;23;20040;-66
2021/08/10 11:26:07;;;;;;;1.70;1.10;;;24.40;67.20;;;;;;6212921;23;20017;-66
2021/08/10 11:28:49;;;;;;;6.43;1.10;;;24.40;67.00;;;;;;6209056;23;20088;-66
2021/08/10 11:31:46;;;;;;;3.88;1.15;;;24.40;66.90;;;;;;6211316;23;20096;-66
2021/08/10 11:34:33;;;;;;;2.25;1.48;;;24.50;67.00;;;;;;6210258;23;20099;-66
2021/08/10 11:37:23;;;;;;;3.55;0.57;;;24.50;67.10;;;;;;6213214;23;20017;-65
2021/08/10 11:40:12;;;;;;;3.40;0.65;;;24.40;67.10;;;;;;6210606;23;20640;-66
2021/08/10 11:42:39;;;;;;;1.55;1.02;;;24.50;67.20;;;;;;6210265;23;20107;-66
2021/08/10 11:45:07;;;;;;;1.02;0.70;;;24.50;67.10;;;;;;6210373;23;20512;-66
2021/08/10 11:47:33;;;;;;;3.13;1.08;;;24.50;67.10;;;;;;6210566;23;20026;-66
2021/08/10 11:49:59;;;;;;;1.35;0.88;;;24.50;67.20;;;;;;6214103;23;20463;-67
2021/08/10 11:52:40;;;;;;;4.00;0.98;;;24.50;67.20;;;;;;6209702;23;20481;-66
2021/08/10 11:55:06;;;;;;;1.48;1.13;;;24.50;67.30;;;;;;6214017;23;20358;-67
2021/08/10 11:57:32;;;;;;;2.72;0.82;;;24.60;67.40;;;;;;6210311;23;20052;-66
2021/08/10 12:00:12;;;;;;;0.82;0.80;;;24.50;67.40;;;;;;6210199;23;20040;-64
2021/08/10 12:02:46;;;;;;;7.30;1.25;;;24.50;67.70;;;;;;6210144;23;20025;-65
2021/08/10 12:05:13;;;;;;;2.20;0.93;;;24.60;67.40;;;;;;6213972;23;20048;-73
2021/08/10 12:07:49;;;;;;;1.48;1.02;;;24.60;67.40;;;;;;6210183;23;20091;-73
2021/08/10 12:10:29;;;;;;;2.63;1.15;;;24.70;67.40;;;;;;6210275;23;20115;-70
2021/08/10 12:13:00;;;;;;;3.30;1.55;;;24.70;67.40;;;;;;6209999;23;20060;-72
2021/08/10 12:15:42;;;;;;;2.65;1.30;;;24.70;67.50;;;;;;6214283;23;20024;-69
2021/08/10 12:18:09;;;;;;;1.35;1.10;;;24.70;67.60;;;;;;6210282;23;20063;-70
2021/08/10 12:20:36;;;;;;;3.35;1.17;;;24.70;67.70;;;;;;6214146;23;20021;-73
2021/08/10 12:23:11;;;;;;;4.13;1.83;;;24.70;67.80;;;;;;6210396;23;20367;-70
2021/08/10 12:25:39;;;;;;;1.60;1.50;;;24.70;67.90;;;;;;6210067;23;20067;-70
2021/08/10 12:28:07;;;;;;;1.25;1.20;;;24.70;68.00;;;;;;6210260;23;20023;-70
2021/08/10 12:30:34;;;;;;;3.03;1.42;;;24.70;68.00;;;;;;6209515;23;20401;-70
2021/08/10 12:33:30;;;;;;;6.13;2.22;;;24.80;68.10;;;;;;6210180;23;20099;-70
2021/08/10 12:36:05;;;;;;;2.67;1.95;;;24.80;68.20;;;;;;6198022;23;20556;-70
2021/08/10 12:38:33;;;;;;;4.43;1.50;;;24.80;68.20;;;;;;6209956;23;20343;-70
2021/08/10 12:40:59;;;;;;;1.92;1.60;;;24.80;68.30;;;;;;6210265;23;20081;-71
2021/08/10 12:43:26;;;;;;;2.20;2.05;;;24.80;68.30;;;;;;6210305;23;20020;-70
2021/08/10 12:45:53;;;;;;;2.00;1.90;;;24.80;68.50;;;;;;6209911;23;20055;-71
2021/08/10 12:48:31;;;;;;;2.25;2.15;;;24.80;68.60;;;;;;6213176;23;20016;-70
2021/08/10 12:51:00;;;;;;;1.80;1.73;;;24.70;68.60;;;;;;6209801;23;20040;-70
2021/08/10 12:53:37;;;;;;;3.08;1.95;;;24.80;68.70;;;;;;6209934;23;20051;-70
2021/08/10 12:56:05;;;;;;;2.15;2.05;;;24.80;68.80;;;;;;6209858;23;20043;-70
2021/08/10 12:58:32;;;;;;;2.72;2.03;;;24.70;68.90;;;;;;6210355;23;20055;-70